createdAt,value
2024-03-26T00:01:40.178Z,20.30
2024-03-26T00:06:44.490Z,15.30
2024-03-26T00:11:47.732Z,15.00
2024-03-26T00:16:51.076Z,14.10
2024-03-26T00:21:54.546Z,14.70
2024-03-26T00:26:57.719Z,13.80
2024-03-26T00:32:01.200Z,14.30
2024-03-26T00:37:04.361Z,18.00
2024-03-26T00:42:07.523Z,15.80
2024-03-26T00:47:10.768Z,14.80
2024-03-26T00:52:14.029Z,13.60
2024-03-26T00:57:17.152Z,12.30
2024-03-26T01:02:20.394Z,13.30
2024-03-26T01:07:23.676Z,12.60
2024-03-26T01:12:26.847Z,13.90
2024-03-26T01:17:30.079Z,18.00
2024-03-26T01:22:33.777Z,15.30
2024-03-26T01:27:37.150Z,15.60
2024-03-26T01:32:40.438Z,13.50
2024-03-26T01:37:43.702Z,12.00
2024-03-26T01:42:46.850Z,19.00
2024-03-26T01:47:50.130Z,29.00
2024-03-26T01:52:54.080Z,25.20
2024-03-26T01:58:00.711Z,26.10
2024-03-26T02:03:03.872Z,23.60
2024-03-26T02:08:07.389Z,22.60
2024-03-26T02:13:10.561Z,22.10
2024-03-26T02:18:13.815Z,16.90
2024-03-26T02:23:23.417Z,17.30
2024-03-26T02:28:26.681Z,13.70
2024-03-26T02:33:30.152Z,15.00
2024-03-26T02:38:33.323Z,16.00
2024-03-26T02:43:37.011Z,16.50
2024-03-26T02:48:40.221Z,16.20
2024-03-26T02:53:43.479Z,13.40
2024-03-26T02:58:46.620Z,13.40
2024-03-26T03:03:50.094Z,12.90
2024-03-26T03:08:53.290Z,9.40
2024-03-26T03:13:56.467Z,9.50
2024-03-26T03:18:59.685Z,9.80
2024-03-26T03:24:04.112Z,8.70
2024-03-26T03:29:07.216Z,8.80
2024-03-26T03:34:10.853Z,8.40
2024-03-26T03:39:14.342Z,9.30
2024-03-26T03:44:18.624Z,9.60
2024-03-26T03:49:22.196Z,7.80
2024-03-26T03:54:25.619Z,9.30
2024-03-26T03:59:28.819Z,10.40
2024-03-26T04:04:32.472Z,15.90
2024-03-26T04:09:35.607Z,15.90
2024-03-26T04:14:38.768Z,12.80
2024-03-26T04:19:43.128Z,11.70
2024-03-26T04:24:46.477Z,10.90
2024-03-26T04:29:49.704Z,11.10
2024-03-26T04:34:53.520Z,11.80
2024-03-26T04:39:56.738Z,12.00
2024-03-26T04:44:59.961Z,12.40
2024-03-26T04:50:03.221Z,10.50
2024-03-26T04:55:06.871Z,13.60
2024-03-26T05:00:14.060Z,14.70
2024-03-26T05:05:17.529Z,11.10
2024-03-26T05:10:20.721Z,11.10
2024-03-26T05:15:23.855Z,10.70
2024-03-26T05:20:27.172Z,8.80
2024-03-26T05:25:30.427Z,9.70
2024-03-26T05:30:33.783Z,8.90
2024-03-26T05:35:36.965Z,10.70
2024-03-26T05:40:40.177Z,10.70
2024-03-26T05:45:44.542Z,8.90
2024-03-26T05:50:47.799Z,7.20
2024-03-26T05:55:51.169Z,9.80
2024-03-26T06:00:54.262Z,9.70
2024-03-26T06:05:58.003Z,10.00
2024-03-26T06:11:01.190Z,10.00
2024-03-26T06:16:12.604Z,8.00
2024-03-26T06:21:15.816Z,10.40
2024-03-26T06:26:22.567Z,12.60
2024-03-26T06:31:28.910Z,13.10
2024-03-26T06:36:53.251Z,13.40
2024-03-26T06:42:02.340Z,12.40
2024-03-26T06:47:06.164Z,13.40
2024-03-26T06:52:10.032Z,13.60
2024-03-26T06:57:16.080Z,10.20
2024-03-26T07:02:29.758Z,10.70
2024-03-26T07:07:45.927Z,12.20
2024-03-26T07:12:55.531Z,10.50
2024-03-26T07:18:33.597Z,10.10
2024-03-26T07:23:37.083Z,9.30
2024-03-26T07:28:43.238Z,9.30
2024-03-26T07:33:48.105Z,8.40
2024-03-26T07:38:53.063Z,9.30
2024-03-26T07:44:08.544Z,8.60
2024-03-26T07:49:19.012Z,8.90
2024-03-26T07:54:23.792Z,8.40
2024-03-26T07:59:27.505Z,7.20
2024-03-26T08:10:52.044Z,6.00
2024-03-26T08:16:08.439Z,5.70
2024-03-26T08:21:14.708Z,5.30
2024-03-26T08:26:18.622Z,5.30
2024-03-26T08:31:25.119Z,3.30
2024-03-26T08:36:32.329Z,3.50
2024-03-26T08:41:42.395Z,3.40
2024-03-26T08:46:46.489Z,3.20
2024-03-26T08:51:54.840Z,2.90
2024-03-26T08:57:04.878Z,3.20
2024-03-26T09:02:08.136Z,2.80
2024-03-26T09:07:17.411Z,2.30
2024-03-26T09:12:20.811Z,1.80
2024-03-26T09:17:24.608Z,2.70
2024-03-26T09:22:28.858Z,2.90
2024-03-26T09:27:39.341Z,2.90
2024-03-26T09:32:48.249Z,2.50
2024-03-26T09:37:54.596Z,2.50
2024-03-26T09:43:16.805Z,2.10
2024-03-26T09:48:25.468Z,2.90
2024-03-26T09:53:35.058Z,2.80
2024-03-26T09:59:36.820Z,2.80
2024-03-26T10:04:40.698Z,2.70
2024-03-26T10:13:10.567Z,4.20
2024-03-26T10:18:13.288Z,4.00
2024-03-26T10:23:18.727Z,3.60
2024-03-26T10:28:23.897Z,3.00
2024-03-26T10:33:26.492Z,4.30
2024-03-26T10:38:33.387Z,3.70
2024-03-26T10:43:37.557Z,3.50
2024-03-26T10:53:57.769Z,3.50
2024-03-26T10:59:27.687Z,5.30
2024-03-26T11:04:30.606Z,4.60
2024-03-26T11:09:33.017Z,3.40
2024-03-26T11:14:42.252Z,4.00
2024-03-26T11:19:45.083Z,4.00
2024-03-26T11:24:48.703Z,5.80
2024-03-26T11:29:52.443Z,5.40
2024-03-26T11:35:20.427Z,4.50
2024-03-26T11:40:26.293Z,5.00
2024-03-26T11:45:28.669Z,4.90
2024-03-26T11:50:31.982Z,5.20
2024-03-26T11:55:34.968Z,5.60
2024-03-26T12:00:53.856Z,6.00
2024-03-26T12:06:23.392Z,6.00
2024-03-26T12:11:40.456Z,7.00
2024-03-26T12:16:43.632Z,5.80
2024-03-26T12:21:58.600Z,4.40
2024-03-26T12:27:06.677Z,5.30
2024-03-26T12:32:10.323Z,4.70
2024-03-26T12:37:12.863Z,4.80
2024-03-26T12:42:15.460Z,4.50
2024-03-26T12:47:20.070Z,3.80
2024-03-26T12:52:23.186Z,3.80
2024-03-26T12:57:25.657Z,4.40
2024-03-26T13:02:28.142Z,3.20
2024-03-26T13:07:30.847Z,3.20
2024-03-26T13:12:33.213Z,3.60
2024-03-26T13:17:35.806Z,3.50
2024-03-26T13:22:38.784Z,4.10
2024-03-26T13:27:50.766Z,3.40
2024-03-26T13:32:54.805Z,3.20
2024-03-26T13:37:59.102Z,3.20
2024-03-26T13:43:09.679Z,3.10
2024-03-26T13:48:22.557Z,3.30
2024-03-26T13:53:32.798Z,3.20
2024-03-26T13:58:35.974Z,3.00
2024-03-26T14:03:38.463Z,3.70
2024-03-26T14:08:41.714Z,3.90
2024-03-26T14:14:13.758Z,3.20
2024-03-26T14:19:26.836Z,3.60
2024-03-26T14:24:31.531Z,3.60
2024-03-26T14:29:35.637Z,4.30
2024-03-26T14:34:38.045Z,4.30
2024-03-26T14:39:40.276Z,3.40
2024-03-26T14:44:42.943Z,4.10
2024-03-26T14:49:48.741Z,3.90
2024-03-26T14:54:51.314Z,4.50
2024-03-26T14:59:53.560Z,6.40
2024-03-26T15:04:56.372Z,5.00
2024-03-26T15:09:58.626Z,7.00
2024-03-26T15:15:02.762Z,6.70
2024-03-26T15:20:06.493Z,5.20
2024-03-26T15:25:10.358Z,5.10
2024-03-26T15:30:31.803Z,6.50
2024-03-26T15:35:34.191Z,8.30
2024-03-26T15:40:36.937Z,7.40
2024-03-26T15:46:03.043Z,6.90
2024-03-26T15:51:05.766Z,7.20
2024-03-26T15:56:09.047Z,7.50
2024-03-26T16:01:11.913Z,8.60
2024-03-26T16:06:14.482Z,7.70
2024-03-26T16:11:16.802Z,7.40
2024-03-26T16:16:19.071Z,7.90
2024-03-26T16:21:22.122Z,7.60
2024-03-26T16:26:24.872Z,7.80
2024-03-26T16:31:27.150Z,7.10
2024-03-26T16:36:29.527Z,6.30
2024-03-26T16:41:36.478Z,6.20
2024-03-26T16:46:39.791Z,6.10
2024-03-26T16:51:43.456Z,5.80
2024-03-26T16:56:46.374Z,5.60
2024-03-26T17:01:48.902Z,5.30
2024-03-26T17:06:52.448Z,5.20
2024-03-26T17:11:55.008Z,4.50
2024-03-26T17:17:05.934Z,5.90
2024-03-26T17:22:15.957Z,4.70
2024-03-26T17:27:18.443Z,5.30
2024-03-26T17:32:20.946Z,4.90
2024-03-26T17:37:23.316Z,4.10
2024-03-26T17:42:31.058Z,5.60
2024-03-26T17:47:33.519Z,5.50
2024-03-26T17:52:36.078Z,5.50
2024-03-26T17:57:39.122Z,5.00
2024-03-26T18:02:41.726Z,5.70
2024-03-26T18:07:45.482Z,4.90
2024-03-26T18:12:51.310Z,6.00
2024-03-26T18:17:55.140Z,5.20
2024-03-26T18:22:57.811Z,4.90
2024-03-26T18:28:04.287Z,7.50
2024-03-26T18:33:07.271Z,6.30
2024-03-26T18:38:09.876Z,5.80
2024-03-26T18:43:13.429Z,6.50
2024-03-26T18:48:22.586Z,4.50
2024-03-26T18:53:28.229Z,4.30
2024-03-26T18:58:32.756Z,5.40
2024-03-26T19:03:39.983Z,5.50
2024-03-26T19:08:47.651Z,6.80
2024-03-26T19:13:50.914Z,6.30
2024-03-26T19:18:56.300Z,5.30
2024-03-26T19:23:58.911Z,6.90
2024-03-26T19:29:01.160Z,7.00
2024-03-26T19:34:06.119Z,6.40
2024-03-26T19:39:09.815Z,6.60
2024-03-26T19:44:12.173Z,7.40
2024-03-26T19:49:14.486Z,6.40
2024-03-26T19:54:21.192Z,7.40
2024-03-26T19:59:24.676Z,7.20
2024-03-26T20:04:29.216Z,6.90
2024-03-26T20:09:34.780Z,6.50
2024-03-26T20:14:38.379Z,6.20
2024-03-26T20:19:40.820Z,6.00
2024-03-26T20:24:43.490Z,6.10
2024-03-26T20:29:45.904Z,6.50
2024-03-26T20:34:48.476Z,5.70
2024-03-26T20:39:50.758Z,6.00
2024-03-26T20:44:57.200Z,6.60
2024-03-26T20:50:02.695Z,6.10
2024-03-26T20:55:08.555Z,5.40
2024-03-26T21:00:13.420Z,5.90
2024-03-26T21:05:15.828Z,5.90
2024-03-26T21:10:18.512Z,6.20
2024-03-26T21:15:28.838Z,5.80
2024-03-26T21:20:40.937Z,7.40
2024-03-26T21:25:43.459Z,6.40
2024-03-26T21:30:56.578Z,7.00
2024-03-26T21:36:02.443Z,5.90
2024-03-26T21:41:08.197Z,6.40
2024-03-26T21:46:10.746Z,5.70
2024-03-26T21:51:13.145Z,7.70
2024-03-26T21:56:17.014Z,7.20
2024-03-26T22:01:19.240Z,6.70
2024-03-26T22:06:21.648Z,6.80
2024-03-26T22:11:24.346Z,6.90
2024-03-26T22:16:26.527Z,7.10
2024-03-26T22:21:30.161Z,6.10
2024-03-26T22:26:32.376Z,7.10
2024-03-26T22:31:34.690Z,6.80
2024-03-26T22:36:37.186Z,6.10
2024-03-26T22:41:39.641Z,5.70
2024-03-26T22:46:41.882Z,6.00
2024-03-26T22:51:44.297Z,6.20
2024-03-26T22:56:47.611Z,5.30
2024-03-26T23:01:50.797Z,6.30
2024-03-26T23:06:53.798Z,6.80
2024-03-26T23:11:56.098Z,6.60
2024-03-26T23:16:58.289Z,5.90
2024-03-26T23:22:01.570Z,6.40
2024-03-26T23:27:04.626Z,6.20
2024-03-26T23:32:07.325Z,5.80
2024-03-26T23:37:13.187Z,7.70
2024-03-26T23:42:15.789Z,7.10
2024-03-26T23:47:17.960Z,5.10
2024-03-26T23:52:20.846Z,5.70
2024-03-26T23:57:23.062Z,7.00
